Time;durP1;ratioP1;P1;durP2;ratioP2;P2;SDS_P1;SDS_P2;PMS_P1;PMS_P2;Temp;Humidity;BMP_temperature;BMP_pressure;BME280_temperature;BME280_humidity;BME280_pressure;Samples;Min_cycle;Max_cycle;Signal;HPM_P1;HPM_P2
2021/12/18 00:00:38;;;;;;;24.70;12.18;;;5.20;99.90;;;;;;4972482;28;20023;-44
2021/12/18 00:03:05;;;;;;;22.23;11.13;;;5.20;99.90;;;;;;4971509;28;20493;-43
2021/12/18 00:05:31;;;;;;;17.77;11.07;;;5.10;99.90;;;;;;4972614;28;20396;-43
2021/12/18 00:07:56;;;;;;;15.98;11.70;;;5.00;99.90;;;;;;4972712;28;20045;-43
2021/12/18 00:10:23;;;;;;;18.10;10.70;;;5.00;99.90;;;;;;4972574;28;20042;-43
2021/12/18 00:12:50;;;;;;;15.88;9.93;;;5.00;99.90;;;;;;4972470;28;20033;-41
2021/12/18 00:15:18;;;;;;;17.33;9.23;;;5.00;99.90;;;;;;4972708;28;20630;-43
2021/12/18 00:17:43;;;;;;;17.27;10.25;;;4.90;99.90;;;;;;4971427;28;20027;-45
2021/12/18 00:20:09;;;;;;;19.77;11.30;;;5.00;99.90;;;;;;4976151;28;20027;-44
2021/12/18 00:22:35;;;;;;;17.25;11.32;;;5.00;99.90;;;;;;4979310;28;20102;-43
2021/12/18 00:25:00;;;;;;;14.77;10.32;;;5.00;99.90;;;;;;4979031;28;20026;-43
2021/12/18 00:27:26;;;;;;;18.08;11.50;;;5.00;99.90;;;;;;4979159;28;20038;-43
2021/12/18 00:29:51;;;;;;;28.08;12.25;;;5.00;99.90;;;;;;4977932;28;20086;-43
2021/12/18 00:32:17;;;;;;;16.63;11.88;;;5.00;99.90;;;;;;4981141;28;20502;-44
2021/12/18 00:34:42;;;;;;;21.02;12.85;;;5.00;99.90;;;;;;4979307;28;20438;-44
2021/12/18 00:37:08;;;;;;;18.60;11.43;;;5.10;99.90;;;;;;4978224;28;20513;-43
2021/12/18 00:39:38;;;;;;;21.10;11.45;;;5.00;99.90;;;;;;4979061;28;20117;-44
2021/12/18 00:42:19;;;;;;;16.10;11.30;;;5.00;99.90;;;;;;4978800;28;20019;-43
2021/12/18 00:44:45;;;;;;;21.08;11.05;;;4.90;99.90;;;;;;4978571;28;20089;-46
2021/12/18 00:47:10;;;;;;;17.65;11.15;;;4.80;99.90;;;;;;4979032;28;20029;-42
2021/12/18 00:49:36;;;;;;;19.17;12.60;;;4.80;99.90;;;;;;4977032;28;20109;-45
2021/12/18 00:52:01;;;;;;;19.52;11.73;;;4.80;99.90;;;;;;4978795;28;20019;-49
2021/12/18 00:54:27;;;;;;;18.15;9.95;;;4.90;99.90;;;;;;4979071;28;20030;-43
2021/12/18 00:56:53;;;;;;;16.77;11.55;;;4.80;99.90;;;;;;4978917;28;20054;-43
2021/12/18 00:59:18;;;;;;;18.70;11.68;;;4.70;99.90;;;;;;4978672;28;20158;-42
2021/12/18 01:01:46;;;;;;;15.30;11.20;;;4.70;99.90;;;;;;4979032;28;20026;-45
2021/12/18 01:04:12;;;;;;;18.75;11.43;;;4.70;99.90;;;;;;4978732;28;20166;-44
2021/12/18 01:06:37;;;;;;;14.60;10.48;;;4.60;99.90;;;;;;4978767;28;20102;-44
2021/12/18 01:09:04;;;;;;;14.43;9.75;;;4.50;99.90;;;;;;4978334;28;20546;-40
2021/12/18 01:14:23;;;;;;;21.98;10.50;;;4.40;99.90;;;;;;4979535;28;20062;-43
2021/12/18 01:24:48;;;;;;;13.73;9.30;;;4.30;99.90;;;;;;4978907;28;20081;-45
2021/12/18 01:27:13;;;;;;;11.80;9.27;;;4.30;99.90;;;;;;4978481;28;20026;-48
2021/12/18 01:29:39;;;;;;;13.10;9.32;;;4.40;99.90;;;;;;4976998;28;20595;-45
2021/12/18 01:32:05;;;;;;;13.90;9.35;;;4.40;99.90;;;;;;4974897;28;20054;-44
2021/12/18 01:34:31;;;;;;;16.00;10.35;;;4.40;99.90;;;;;;4975438;28;20023;-45
2021/12/18 01:36:56;;;;;;;17.08;10.65;;;4.40;99.90;;;;;;4975587;28;20034;-45
2021/12/18 01:39:22;;;;;;;12.40;8.80;;;4.30;99.90;;;;;;4975174;28;20154;-47
2021/12/18 01:52:38;;;;;;;11.57;9.18;;;4.20;99.90;;;;;;4975198;28;20045;-43
2021/12/18 01:55:04;;;;;;;14.60;8.75;;;4.20;99.90;;;;;;4974039;28;20026;-48
2021/12/18 01:57:31;;;;;;;13.70;9.27;;;4.20;99.90;;;;;;4975133;28;20041;-45
2021/12/18 01:59:57;;;;;;;17.33;8.90;;;4.20;99.90;;;;;;4974880;28;20126;-47
2021/12/18 02:02:22;;;;;;;14.00;7.85;;;4.20;99.90;;;;;;4975147;28;20054;-49
2021/12/18 02:04:48;;;;;;;10.25;8.13;;;4.10;99.90;;;;;;4974190;28;20023;-46
2021/12/18 02:07:14;;;;;;;21.73;9.02;;;4.10;99.90;;;;;;4975149;28;20031;-47
2021/12/18 02:12:19;;;;;;;13.02;8.32;;;4.10;99.90;;;;;;4974836;28;20026;-49
2021/12/18 02:22:50;;;;;;;;;;;3.80;99.90;;;;;;4975300;28;20490;-44
2021/12/18 02:25:16;;;;;;;17.02;8.90;;;3.80;99.90;;;;;;4973776;28;20298;-44
2021/12/18 02:27:41;;;;;;;16.33;9.88;;;3.70;99.90;;;;;;4974880;28;20056;-45
2021/12/18 02:30:10;;;;;;;15.77;9.30;;;3.60;99.90;;;;;;4974496;28;20586;-43
2021/12/18 02:32:35;;;;;;;13.07;9.02;;;3.60;99.90;;;;;;4974674;28;20037;-44
2021/12/18 02:35:05;;;;;;;17.55;9.50;;;3.60;99.90;;;;;;4973312;28;20031;-44
2021/12/18 02:37:33;;;;;;;15.55;9.57;;;3.50;99.90;;;;;;4974763;28;20074;-43
2021/12/18 02:42:28;;;;;;;17.83;10.23;;;3.30;99.90;;;;;;4974282;28;20019;-44
2021/12/18 02:44:53;;;;;;;14.90;10.27;;;3.50;99.90;;;;;;4974416;28;20030;-49
2021/12/18 02:47:19;;;;;;;21.35;11.90;;;3.40;99.90;;;;;;4972932;28;20399;-45
2021/12/18 02:49:47;;;;;;;17.92;10.23;;;3.30;99.90;;;;;;4973840;28;20034;-49
2021/12/18 02:52:13;;;;;;;17.85;10.38;;;3.20;99.90;;;;;;4974422;28;20050;-46
2021/12/18 02:54:40;;;;;;;17.25;9.98;;;3.20;99.90;;;;;;4974033;28;20112;-47
2021/12/18 02:57:06;;;;;;;12.95;9.75;;;3.20;99.90;;;;;;4974049;28;20039;-46
2021/12/18 02:59:43;;;;;;;20.42;11.60;;;3.20;99.90;;;;;;4974271;28;20027;-45
2021/12/18 03:02:08;;;;;;;14.60;10.25;;;3.20;99.90;;;;;;4974040;28;20015;-45
2021/12/18 03:04:36;;;;;;;20.50;10.57;;;3.20;99.90;;;;;;4973871;28;20022;-46
2021/12/18 03:07:04;;;;;;;22.02;12.02;;;3.10;99.90;;;;;;4973888;28;20030;-42
2021/12/18 03:25:16;;;;;;;18.75;10.90;;;2.70;99.90;;;;;;4974015;28;20096;-46
2021/12/18 03:27:42;;;;;;;20.63;10.43;;;2.70;99.90;;;;;;4973543;28;20038;-46
2021/12/18 03:30:08;;;;;;;18.20;11.40;;;2.70;99.90;;;;;;4973472;28;20023;-47
2021/12/18 03:32:33;;;;;;;30.73;12.40;;;2.70;99.90;;;;;;4973178;28;20476;-45
2021/12/18 03:34:59;;;;;;;19.92;11.85;;;2.70;99.90;;;;;;4971925;28;20035;-44
2021/12/18 03:37:24;;;;;;;18.27;11.27;;;2.60;99.90;;;;;;4973283;28;20027;-44
2021/12/18 03:39:50;;;;;;;20.55;12.07;;;2.60;99.90;;;;;;4972906;28;20030;-48
2021/12/18 03:42:16;;;;;;;21.08;10.65;;;2.60;99.90;;;;;;4973294;28;20031;-43
2021/12/18 03:44:42;;;;;;;17.58;10.60;;;2.60;99.90;;;;;;4973585;28;20026;-44
2021/12/18 03:47:08;;;;;;;18.60;11.20;;;2.60;99.90;;;;;;4973169;28;20082;-45
2021/12/18 03:49:33;;;;;;;19.40;10.55;;;2.40;99.90;;;;;;4973130;28;20395;-44
2021/12/18 03:51:59;;;;;;;22.60;11.77;;;2.40;99.90;;;;;;4973529;28;20062;-42
2021/12/18 03:54:25;;;;;;;19.08;11.23;;;2.40;99.90;;;;;;4973072;28;20498;-50
2021/12/18 03:56:51;;;;;;;15.63;10.23;;;2.50;99.90;;;;;;4973509;28;20023;-45
2021/12/18 03:59:17;;;;;;;17.15;11.20;;;2.50;99.90;;;;;;4973260;28;20031;-44
2021/12/18 04:01:43;;;;;;;15.30;10.52;;;2.40;99.90;;;;;;4973161;28;20026;-43
2021/12/18 04:04:08;;;;;;;25.50;12.10;;;2.50;99.90;;;;;;4973397;28;20057;-44
2021/12/18 04:06:37;;;;;;;19.05;11.40;;;2.50;99.90;;;;;;4972944;28;20422;-47
2021/12/18 04:09:03;;;;;;;17.63;10.95;;;2.50;99.90;;;;;;4972526;28;20043;-44
2021/12/18 04:11:28;;;;;;;14.60;10.82;;;2.50;99.90;;;;;;4972647;28;20069;-46
2021/12/18 04:13:54;;;;;;;16.88;10.88;;;2.60;99.90;;;;;;4972818;28;20029;-46
2021/12/18 04:16:21;;;;;;;15.23;11.02;;;2.50;99.90;;;;;;4973142;28;20029;-44
2021/12/18 04:18:46;;;;;;;15.88;10.65;;;2.50;99.90;;;;;;4972818;28;20050;-45
2021/12/18 04:21:12;;;;;;;14.77;11.05;;;2.50;99.90;;;;;;4972377;28;20112;-43
2021/12/18 04:23:37;;;;;;;17.38;12.25;;;2.50;99.90;;;;;;4972712;28;20027;-46
2021/12/18 04:26:03;;;;;;;14.40;10.70;;;2.40;99.90;;;;;;4972851;28;20039;-44
2021/12/18 04:28:29;;;;;;;18.70;12.40;;;2.40;99.90;;;;;;4972776;28;20430;-46
2021/12/18 04:30:54;;;;;;;17.20;12.32;;;2.40;99.90;;;;;;4972466;28;20110;-49
2021/12/18 04:33:20;;;;;;;15.77;12.10;;;2.40;99.90;;;;;;4972445;28;20023;-44
2021/12/18 04:35:46;;;;;;;17.08;11.85;;;2.30;99.90;;;;;;4972645;28;20486;-47
2021/12/18 04:38:12;;;;;;;19.67;12.82;;;2.20;99.90;;;;;;4972576;28;20124;-46
2021/12/18 04:40:40;;;;;;;22.45;13.20;;;2.20;99.90;;;;;;4972175;28;20054;-46
2021/12/18 04:43:05;;;;;;;23.25;13.35;;;2.10;99.90;;;;;;4972627;28;20027;-47
2021/12/18 04:45:31;;;;;;;20.08;13.50;;;2.20;99.90;;;;;;4972507;28;20031;-46
2021/12/18 04:47:57;;;;;;;24.30;15.40;;;2.10;99.90;;;;;;4972506;28;20033;-45
2021/12/18 04:50:23;;;;;;;18.98;14.07;;;2.00;99.90;;;;;;4972133;28;20023;-45
2021/12/18 04:52:50;;;;;;;19.55;13.02;;;1.90;99.90;;;;;;4972450;28;20050;-47
2021/12/18 04:55:15;;;;;;;21.27;12.38;;;1.80;99.90;;;;;;4972462;28;20118;-45
2021/12/18 04:57:41;;;;;;;20.88;12.93;;;1.80;99.90;;;;;;4972522;28;20102;-47
2021/12/18 05:00:10;;;;;;;18.05;13.10;;;1.80;99.90;;;;;;4972494;28;20114;-46
2021/12/18 05:02:39;;;;;;;25.73;13.10;;;1.70;99.90;;;;;;4971076;28;20035;-47
2021/12/18 05:05:06;;;;;;;20.25;13.00;;;1.70;99.90;;;;;;4972521;28;20027;-46
2021/12/18 05:07:32;;;;;;;25.00;12.38;;;1.80;99.90;;;;;;4975782;28;20514;-45
2021/12/18 05:09:58;;;;;;;37.28;14.75;;;1.70;99.90;;;;;;4976028;28;20065;-43
2021/12/18 05:12:24;;;;;;;51.20;14.65;;;1.70;99.90;;;;;;4975442;28;20503;-43
2021/12/18 05:14:49;;;;;;;41.50;14.35;;;1.70;99.90;;;;;;4975811;28;20117;-45
2021/12/18 05:17:15;;;;;;;24.20;11.85;;;1.70;99.90;;;;;;4975737;28;20085;-47
2021/12/18 05:19:40;;;;;;;36.33;14.38;;;1.70;99.90;;;;;;4975760;28;20178;-45
2021/12/18 05:22:06;;;;;;;18.90;12.48;;;1.70;99.90;;;;;;4975752;28;20573;-45
2021/12/18 05:24:32;;;;;;;23.00;13.43;;;1.80;99.90;;;;;;4975607;28;20101;-45
2021/12/18 05:26:58;;;;;;;17.38;12.25;;;1.90;99.90;;;;;;4974379;28;20081;-46
2021/12/18 05:29:23;;;;;;;16.73;12.40;;;1.90;99.90;;;;;;4973784;28;20034;-46
2021/12/18 05:31:49;;;;;;;19.45;13.48;;;2.00;99.90;;;;;;4975506;28;20022;-44
2021/12/18 05:34:21;;;;;;;19.10;11.63;;;2.00;99.90;;;;;;4975499;28;20027;-42
2021/12/18 05:39:21;;;;;;;18.40;12.82;;;2.10;99.90;;;;;;4974942;28;20027;-46
2021/12/18 05:41:50;;;;;;;16.92;12.40;;;2.10;99.90;;;;;;4975249;28;20018;-44
2021/12/18 05:44:19;;;;;;;17.83;11.77;;;2.10;99.90;;;;;;4975420;28;20047;-45
2021/12/18 05:46:46;;;;;;;21.15;12.70;;;2.20;99.90;;;;;;4975361;28;20466;-44
2021/12/18 05:49:12;;;;;;;19.70;12.88;;;2.20;99.90;;;;;;4975052;28;20055;-50
2021/12/18 05:51:38;;;;;;;15.10;10.75;;;2.20;99.90;;;;;;4975326;28;20427;-43
2021/12/18 05:54:04;;;;;;;15.48;12.10;;;2.10;99.90;;;;;;4974850;28;20027;-43
2021/12/18 05:56:30;;;;;;;15.20;11.80;;;2.10;99.90;;;;;;4975285;28;20023;-43
2021/12/18 05:58:56;;;;;;;16.05;11.45;;;2.20;99.90;;;;;;4975265;28;20094;-46
2021/12/18 06:01:22;;;;;;;17.33;12.18;;;2.20;99.90;;;;;;4974751;28;20098;-43
2021/12/18 06:03:47;;;;;;;16.85;12.57;;;2.40;99.90;;;;;;4974833;28;20055;-48
2021/12/18 06:06:14;;;;;;;18.88;13.57;;;2.40;99.90;;;;;;4973765;28;20027;-43
2021/12/18 06:08:42;;;;;;;19.80;12.38;;;2.50;99.90;;;;;;4974706;28;20395;-47
2021/12/18 06:11:12;;;;;;;18.73;11.93;;;2.60;99.90;;;;;;4974051;28;20515;-45
2021/12/18 06:13:38;;;;;;;19.63;12.63;;;2.60;99.90;;;;;;4974693;28;20088;-46
2021/12/18 06:16:05;;;;;;;17.83;12.90;;;2.60;99.90;;;;;;4975281;28;20446;-43
2021/12/18 06:18:36;;;;;;;19.70;12.98;;;2.70;99.90;;;;;;4973907;28;20019;-44
2021/12/18 06:21:02;;;;;;;21.35;12.75;;;2.70;99.90;;;;;;4974358;28;20015;-43
2021/12/18 06:23:28;;;;;;;19.10;12.32;;;2.80;99.90;;;;;;4974464;28;20085;-48
2021/12/18 06:25:54;;;;;;;17.00;11.95;;;2.90;99.90;;;;;;4974571;28;20097;-44
2021/12/18 06:28:19;;;;;;;17.25;12.35;;;2.90;99.90;;;;;;4973170;28;20038;-44
2021/12/18 06:30:45;;;;;;;15.75;12.30;;;2.90;99.90;;;;;;4974147;28;20033;-49
2021/12/18 06:33:11;;;;;;;18.13;12.55;;;3.10;99.90;;;;;;4974243;28;20023;-44
2021/12/18 06:35:36;;;;;;;16.90;11.73;;;3.10;99.90;;;;;;4974291;28;20027;-43
2021/12/18 06:38:02;;;;;;;16.45;11.63;;;3.10;99.90;;;;;;4974162;28;20023;-44
2021/12/18 06:40:28;;;;;;;16.48;12.27;;;3.20;99.90;;;;;;4973956;28;20027;-44
2021/12/18 06:42:53;;;;;;;17.27;12.38;;;3.20;99.90;;;;;;4974143;28;20402;-48
2021/12/18 06:45:19;;;;;;;15.02;10.95;;;3.30;99.90;;;;;;4974133;28;20054;-46
2021/12/18 06:47:44;;;;;;;16.55;11.20;;;3.30;99.90;;;;;;4974057;28;20059;-44
2021/12/18 06:50:10;;;;;;;19.92;11.73;;;3.40;99.90;;;;;;4973789;28;20031;-46
2021/12/18 06:52:36;;;;;;;14.65;11.32;;;3.40;99.90;;;;;;4974023;28;20460;-45
2021/12/18 06:55:01;;;;;;;15.77;11.65;;;3.40;99.90;;;;;;4974144;28;20053;-44
2021/12/18 06:57:27;;;;;;;19.33;12.13;;;3.50;99.90;;;;;;4973825;28;20030;-43
2021/12/18 06:59:53;;;;;;;17.42;11.32;;;3.50;99.90;;;;;;4973673;28;20027;-49
2021/12/18 07:02:19;;;;;;;20.15;11.57;;;3.60;99.90;;;;;;4973885;28;20030;-43
2021/12/18 07:04:44;;;;;;;15.82;10.90;;;3.50;99.90;;;;;;4973728;28;20042;-47
2021/12/18 07:07:10;;;;;;;17.30;12.10;;;3.50;99.90;;;;;;4973671;28;20023;-45
2021/12/18 07:09:36;;;;;;;19.73;13.05;;;3.30;99.90;;;;;;4973770;28;20402;-41
2021/12/18 07:12:01;;;;;;;20.02;13.10;;;3.30;99.90;;;;;;4973155;28;20083;-44
2021/12/18 07:14:27;;;;;;;21.33;14.38;;;3.30;99.90;;;;;;4973658;28;20031;-46
2021/12/18 07:16:53;;;;;;;23.63;15.13;;;3.20;99.90;;;;;;4973693;28;20015;-45
2021/12/18 07:19:19;;;;;;;19.65;13.50;;;3.10;99.90;;;;;;4973284;28;20493;-43
2021/12/18 07:21:44;;;;;;;16.38;11.90;;;3.10;99.90;;;;;;4973584;28;20030;-43
2021/12/18 07:24:10;;;;;;;18.30;12.48;;;3.10;99.90;;;;;;4973506;28;20511;-43
2021/12/18 07:26:35;;;;;;;20.13;14.60;;;3.10;99.90;;;;;;4973986;28;20034;-48
2021/12/18 07:29:01;;;;;;;19.40;13.52;;;3.10;99.90;;;;;;4972574;28;20031;-49
2021/12/18 07:31:27;;;;;;;16.75;12.57;;;3.10;99.90;;;;;;4973418;28;20031;-45
2021/12/18 07:33:53;;;;;;;20.48;12.98;;;3.10;99.90;;;;;;4973250;28;20030;-45
2021/12/18 07:36:19;;;;;;;26.95;15.00;;;3.10;99.90;;;;;;4973534;28;20026;-43
2021/12/18 07:38:44;;;;;;;21.38;14.10;;;3.30;99.90;;;;;;4973185;28;20026;-46
2021/12/18 07:41:11;;;;;;;25.60;14.57;;;3.30;99.90;;;;;;4972964;28;20462;-43
2021/12/18 07:43:37;;;;;;;29.75;14.80;;;3.30;99.90;;;;;;4973526;28;20109;-47
2021/12/18 07:46:02;;;;;;;23.85;15.65;;;3.40;99.90;;;;;;4973308;28;20058;-40
2021/12/18 07:48:28;;;;;;;25.63;16.02;;;3.40;99.90;;;;;;4973210;28;20034;-43
2021/12/18 07:50:54;;;;;;;27.58;16.48;;;3.40;99.90;;;;;;4973767;28;20049;-43
2021/12/18 07:53:19;;;;;;;25.88;15.38;;;3.40;99.90;;;;;;4974033;28;20103;-46
2021/12/18 07:55:45;;;;;;;24.15;15.65;;;3.40;99.90;;;;;;4974215;28;20172;-42
2021/12/18 07:58:10;;;;;;;25.67;16.92;;;3.50;99.90;;;;;;4973160;28;20023;-43
2021/12/18 08:00:36;;;;;;;25.48;16.13;;;3.50;99.90;;;;;;4973181;28;20027;-44
2021/12/18 08:03:02;;;;;;;24.38;15.30;;;3.50;99.90;;;;;;4973099;28;20497;-46
2021/12/18 08:05:27;;;;;;;25.88;15.77;;;3.50;99.90;;;;;;4973237;28;20052;-42
2021/12/18 08:07:53;;;;;;;24.92;15.57;;;3.50;99.90;;;;;;4972704;28;20030;-42
2021/12/18 08:10:18;;;;;;;22.92;15.18;;;3.50;99.90;;;;;;4972957;28;20109;-44
2021/12/18 08:12:44;;;;;;;30.33;15.05;;;3.50;99.90;;;;;;4972430;28;20029;-43
2021/12/18 08:15:10;;;;;;;23.27;14.82;;;3.50;99.90;;;;;;4973508;28;20061;-43
2021/12/18 08:17:36;;;;;;;33.78;16.27;;;3.50;99.90;;;;;;4973493;28;20098;-42
2021/12/18 08:20:04;;;;;;;45.97;18.38;;;3.50;99.90;;;;;;4973737;28;20149;-43
2021/12/18 08:22:29;;;;;;;26.92;15.13;;;3.50;99.90;;;;;;4973635;28;20026;-44
2021/12/18 08:24:55;;;;;;;30.48;16.55;;;3.60;99.90;;;;;;4971871;28;20117;-44
2021/12/18 08:27:21;;;;;;;24.90;15.55;;;3.50;99.90;;;;;;4971414;28;20557;-41
2021/12/18 08:29:46;;;;;;;23.50;15.68;;;3.50;99.90;;;;;;4972665;28;20023;-43
2021/12/18 08:32:12;;;;;;;28.98;16.42;;;3.50;99.90;;;;;;4972841;28;20514;-43
2021/12/18 08:34:38;;;;;;;26.35;16.42;;;3.50;99.90;;;;;;4973546;28;20595;-46
2021/12/18 08:37:04;;;;;;;24.52;15.05;;;3.50;99.90;;;;;;4968250;28;20023;-44
2021/12/18 08:39:29;;;;;;;24.65;15.52;;;3.60;99.90;;;;;;4979777;28;20027;-45
2021/12/18 08:41:58;;;;;;;24.83;16.45;;;3.60;99.90;;;;;;4976511;28;20533;-45
2021/12/18 08:44:23;;;;;;;25.48;15.18;;;3.60;99.90;;;;;;4959738;28;20099;-51
2021/12/18 08:46:49;;;;;;;25.10;15.98;;;3.70;99.90;;;;;;4958694;28;20118;-46
2021/12/18 08:49:15;;;;;;;29.35;16.30;;;3.70;99.90;;;;;;4975397;28;20136;-45
2021/12/18 08:51:41;;;;;;;24.30;15.90;;;3.80;99.90;;;;;;4977863;28;20114;-42
2021/12/18 08:54:06;;;;;;;28.25;16.73;;;3.70;99.90;;;;;;4976563;28;20110;-46
2021/12/18 08:56:32;;;;;;;28.05;15.90;;;3.80;99.90;;;;;;4977383;28;20391;-44
2021/12/18 08:59:00;;;;;;;30.00;16.38;;;3.90;99.90;;;;;;4976842;28;20033;-43
2021/12/18 09:01:29;;;;;;;28.23;16.80;;;4.00;99.90;;;;;;4976485;28;20027;-44
2021/12/18 09:03:54;;;;;;;26.17;17.20;;;3.90;99.90;;;;;;4976295;28;20050;-43
2021/12/18 09:06:21;;;;;;;25.23;16.98;;;3.90;99.90;;;;;;4975991;28;20027;-43
2021/12/18 09:08:47;;;;;;;28.23;16.27;;;3.80;99.90;;;;;;4991358;23;20691;-47
2021/12/18 09:11:13;;;;;;;29.35;16.77;;;3.80;99.90;;;;;;4994616;28;20117;-45
2021/12/18 09:13:39;;;;;;;24.67;15.27;;;3.80;99.90;;;;;;4995851;28;20030;-48
2021/12/18 09:16:05;;;;;;;23.10;15.13;;;3.90;99.90;;;;;;4995714;28;20408;-46
2021/12/18 09:18:31;;;;;;;26.45;15.95;;;4.00;99.90;;;;;;4995209;28;20553;-43
2021/12/18 09:20:56;;;;;;;22.92;16.73;;;4.00;99.90;;;;;;4995179;28;20030;-45
2021/12/18 09:23:22;;;;;;;25.23;16.20;;;4.10;99.90;;;;;;4995221;28;20030;-44
2021/12/18 09:25:48;;;;;;;22.83;15.40;;;4.00;99.90;;;;;;4994737;28;20343;-43
2021/12/18 09:28:14;;;;;;;29.42;15.80;;;4.00;99.90;;;;;;4995078;28;20045;-45
2021/12/18 09:30:40;;;;;;;25.55;16.17;;;4.00;99.90;;;;;;4994925;28;20490;-46
2021/12/18 09:33:07;;;;;;;23.92;15.75;;;4.10;99.90;;;;;;4993920;28;20026;-44
2021/12/18 09:35:32;;;;;;;28.27;17.02;;;4.10;99.90;;;;;;4995247;28;20026;-45
2021/12/18 09:37:58;;;;;;;26.63;16.75;;;4.20;99.90;;;;;;4993788;28;20133;-44
2021/12/18 09:40:24;;;;;;;25.50;17.00;;;4.20;99.90;;;;;;4994885;28;20037;-46
2021/12/18 09:42:50;;;;;;;26.75;17.20;;;4.20;99.90;;;;;;4995001;28;20385;-44
2021/12/18 09:45:16;;;;;;;25.80;17.02;;;4.20;99.90;;;;;;4995043;28;20065;-47
2021/12/18 09:47:44;;;;;;;31.05;18.70;;;4.20;99.90;;;;;;4993642;28;20085;-46
2021/12/18 09:50:11;;;;;;;27.13;17.02;;;4.20;99.90;;;;;;4994405;28;20034;-45
2021/12/18 09:52:38;;;;;;;30.80;17.88;;;4.20;99.90;;;;;;4993683;28;20027;-48
2021/12/18 09:55:05;;;;;;;23.70;15.93;;;4.10;99.90;;;;;;4994916;28;20026;-45
2021/12/18 09:57:31;;;;;;;26.95;17.10;;;4.10;99.90;;;;;;4994773;28;20018;-43
2021/12/18 09:59:57;;;;;;;27.85;15.85;;;4.20;99.90;;;;;;4994415;28;20046;-44
2021/12/18 10:02:22;;;;;;;29.05;17.80;;;4.30;99.90;;;;;;4994756;28;20394;-43
2021/12/18 10:04:48;;;;;;;26.50;16.77;;;4.40;99.90;;;;;;4994505;28;20026;-50
2021/12/18 10:07:15;;;;;;;27.05;17.45;;;4.50;99.90;;;;;;4995626;28;20505;-47
2021/12/18 10:09:41;;;;;;;23.50;16.83;;;4.40;99.90;;;;;;4995166;28;20034;-48
2021/12/18 10:12:19;;;;;;;28.63;16.70;;;4.50;99.90;;;;;;4996013;28;20030;-43
2021/12/18 10:15:01;;;;;;;27.48;17.45;;;4.50;99.90;;;;;;4987243;28;20118;-48
2021/12/18 10:17:38;;;;;;;34.63;18.55;;;4.50;99.90;;;;;;4992516;28;20044;-47
2021/12/18 10:20:09;;;;;;;27.25;16.25;;;4.50;99.90;;;;;;4976107;28;20033;-43
2021/12/18 10:22:36;;;;;;;27.02;17.42;;;4.50;99.90;;;;;;4975020;28;20030;-52
2021/12/18 10:25:07;;;;;;;24.58;16.80;;;4.50;99.90;;;;;;4974638;28;20399;-42
2021/12/18 10:27:33;;;;;;;24.35;17.88;;;4.50;99.90;;;;;;4982380;28;20033;-45
2021/12/18 10:30:17;;;;;;;22.90;16.33;;;4.60;99.90;;;;;;4982780;28;20094;-42
2021/12/18 10:33:02;;;;;;;26.50;16.23;;;4.60;99.90;;;;;;4974757;28;20038;-44
2021/12/18 10:35:45;;;;;;;26.08;15.95;;;4.60;99.90;;;;;;4974764;28;20372;-44
2021/12/18 10:38:34;;;;;;;22.77;15.82;;;4.70;99.90;;;;;;4976062;28;20102;-40
2021/12/18 10:40:59;;;;;;;23.38;16.80;;;4.60;99.90;;;;;;4975587;28;20030;-43
2021/12/18 10:43:25;;;;;;;27.83;16.55;;;4.70;99.90;;;;;;4977787;28;20105;-44
2021/12/18 10:45:50;;;;;;;23.10;15.38;;;4.70;99.90;;;;;;4988995;28;20372;-43
2021/12/18 10:48:17;;;;;;;24.30;16.15;;;4.80;99.90;;;;;;4985193;28;20049;-47
2021/12/18 10:50:53;;;;;;;25.83;16.55;;;4.70;99.90;;;;;;4991643;28;20030;-45
2021/12/18 10:53:27;;;;;;;;;;;4.80;99.90;;;;;;4975716;28;20035;-41
2021/12/18 10:56:02;;;;;;;23.52;16.65;;;4.90;99.90;;;;;;4984274;28;19910;-42
2021/12/18 10:58:36;;;;;;;23.70;16.42;;;4.90;99.90;;;;;;4991374;28;20458;-43
2021/12/18 11:01:13;;;;;;;25.02;17.10;;;5.00;99.90;;;;;;4991476;28;20031;-43
2021/12/18 11:03:46;;;;;;;24.15;16.95;;;5.00;99.90;;;;;;4993188;28;20057;-43
2021/12/18 11:06:22;;;;;;;28.15;18.05;;;5.10;99.90;;;;;;4991681;28;20019;-50
2021/12/18 11:09:28;;;;;;;27.88;17.60;;;5.10;99.90;;;;;;4972271;28;20569;-43
2021/12/18 11:14:42;;;;;;;26.38;18.13;;;5.00;99.90;;;;;;4974103;28;20030;-43
2021/12/18 11:17:11;;;;;;;30.63;18.27;;;5.10;99.90;;;;;;4986150;28;20500;-41
2021/12/18 11:19:39;;;;;;;26.10;17.60;;;5.00;99.90;;;;;;4982685;28;20063;-42
2021/12/18 11:22:14;;;;;;;27.13;18.13;;;5.10;99.90;;;;;;4977061;28;20489;-42
2021/12/18 11:24:58;;;;;;;32.15;17.83;;;5.10;99.90;;;;;;4975679;28;20558;-42
2021/12/18 11:27:24;;;;;;;26.58;17.67;;;5.10;99.90;;;;;;4987252;28;20080;-41
2021/12/18 11:30:11;;;;;;;27.00;18.63;;;5.10;99.90;;;;;;4991278;28;20034;-44
2021/12/18 11:32:43;;;;;;;32.20;18.38;;;5.10;99.90;;;;;;4989962;28;20030;-40
2021/12/18 11:35:15;;;;;;;24.33;17.52;;;5.10;99.90;;;;;;4982279;28;20039;-43
2021/12/18 11:37:44;;;;;;;27.65;19.95;;;5.30;99.90;;;;;;4973529;28;20053;-42
2021/12/18 11:40:14;;;;;;;27.73;19.10;;;5.30;99.90;;;;;;4988531;28;20022;-42
2021/12/18 11:42:41;;;;;;;26.02;18.48;;;5.20;99.90;;;;;;4976039;28;20050;-42
2021/12/18 11:45:07;;;;;;;25.38;18.55;;;5.10;99.90;;;;;;4954074;28;20039;-43
2021/12/18 11:47:44;;;;;;;25.75;17.95;;;5.10;99.90;;;;;;4960479;28;20414;-44
2021/12/18 11:50:09;;;;;;;25.08;18.45;;;5.20;99.90;;;;;;4973865;28;20565;-43
2021/12/18 11:53:02;;;;;;;24.60;17.83;;;5.20;99.90;;;;;;4982046;28;20117;-42
2021/12/18 11:55:32;;;;;;;25.45;16.23;;;5.20;99.90;;;;;;4983919;28;20030;-43
2021/12/18 11:58:00;;;;;;;24.02;16.20;;;5.20;99.90;;;;;;4971736;28;20018;-44
2021/12/18 12:00:35;;;;;;;21.65;14.15;;;5.20;99.90;;;;;;4971389;28;20019;-44
2021/12/18 12:03:02;;;;;;;26.98;15.85;;;5.20;99.90;;;;;;4970867;28;20077;-41
2021/12/18 12:05:43;;;;;;;22.98;15.48;;;5.30;99.90;;;;;;4972187;28;20087;-42
2021/12/18 12:08:25;;;;;;;20.33;14.10;;;5.30;99.90;;;;;;4973007;28;20027;-43
2021/12/18 12:11:06;;;;;;;22.38;12.57;;;5.10;99.90;;;;;;4972623;28;20034;-43
2021/12/18 12:13:54;;;;;;;17.45;11.35;;;5.10;99.90;;;;;;4975130;28;20030;-44
2021/12/18 12:16:42;;;;;;;20.13;13.05;;;5.10;99.90;;;;;;4986940;28;20042;-43
2021/12/18 12:19:09;;;;;;;19.08;13.85;;;5.20;99.90;;;;;;4991985;28;20050;-38
2021/12/18 12:21:47;;;;;;;19.38;13.23;;;5.30;99.90;;;;;;4992649;28;20045;-41
2021/12/18 12:24:17;;;;;;;65.60;38.85;;;5.20;99.90;;;;;;4993475;28;20030;-42
2021/12/18 12:26:43;;;;;;;42.83;27.50;;;5.20;99.90;;;;;;4993159;28;20022;-43
2021/12/18 12:29:11;;;;;;;86.68;46.00;;;5.10;99.90;;;;;;4992245;28;20038;-40
2021/12/18 12:31:40;;;;;;;22.60;16.08;;;5.10;99.90;;;;;;4992248;28;20492;-42
2021/12/18 12:34:36;;;;;;;20.00;13.15;;;5.10;99.90;;;;;;4992913;28;20035;-45
2021/12/18 12:37:23;;;;;;;16.50;11.52;;;5.10;99.90;;;;;;4993298;28;20026;-41
2021/12/18 12:39:59;;;;;;;14.93;10.25;;;5.00;99.90;;;;;;4992741;28;20023;-41
2021/12/18 12:42:25;;;;;;;16.42;11.73;;;4.90;99.90;;;;;;4992791;28;20034;-41
2021/12/18 12:45:05;;;;;;;15.70;11.18;;;5.00;99.90;;;;;;4991519;28;20026;-42
2021/12/18 12:47:32;;;;;;;14.63;10.38;;;5.10;99.90;;;;;;4991365;28;20027;-43
2021/12/18 12:50:20;;;;;;;16.50;11.00;;;5.00;99.90;;;;;;4992325;28;20026;-41
2021/12/18 12:52:51;;;;;;;16.65;11.05;;;5.00;99.90;;;;;;4991332;28;20410;-43
2021/12/18 12:55:19;;;;;;;15.35;10.75;;;4.90;99.90;;;;;;4991967;28;20502;-40
2021/12/18 12:57:50;;;;;;;14.85;10.57;;;4.90;99.90;;;;;;4991783;28;20375;-44
2021/12/18 13:00:33;;;;;;;12.98;9.18;;;5.00;99.90;;;;;;4991231;28;20110;-44
2021/12/18 13:03:05;;;;;;;13.30;9.60;;;5.00;99.90;;;;;;4992026;28;20104;-42
2021/12/18 13:05:31;;;;;;;16.73;10.20;;;5.00;99.90;;;;;;4991890;28;20376;-42
2021/12/18 13:08:01;;;;;;;10.77;8.50;;;5.00;99.90;;;;;;4992078;28;20342;-42
2021/12/18 13:10:38;;;;;;;12.18;8.52;;;5.00;99.90;;;;;;4991959;28;20042;-44
2021/12/18 13:13:07;;;;;;;13.68;9.13;;;5.00;99.90;;;;;;4991669;28;20081;-43
2021/12/18 13:15:56;;;;;;;10.95;8.77;;;5.00;99.90;;;;;;4991889;28;20089;-39
2021/12/18 13:18:25;;;;;;;11.00;8.07;;;5.00;99.90;;;;;;4991842;28;20030;-46
2021/12/18 13:21:02;;;;;;;13.32;9.20;;;5.10;99.90;;;;;;4990279;28;20122;-44
2021/12/18 13:23:49;;;;;;;12.10;9.82;;;5.10;99.90;;;;;;4991802;28;20026;-42
2021/12/18 13:26:27;;;;;;;12.27;8.18;;;5.20;99.90;;;;;;4992110;28;20014;-43
2021/12/18 13:29:06;;;;;;;12.00;8.55;;;5.30;99.90;;;;;;4995325;28;20015;-43
2021/12/18 13:31:34;;;;;;;14.15;9.98;;;5.30;99.90;;;;;;4993809;28;20027;-41
2021/12/18 13:34:10;;;;;;;15.10;10.45;;;5.20;99.90;;;;;;4995084;28;20057;-43
2021/12/18 13:36:53;;;;;;;15.88;11.00;;;5.20;99.90;;;;;;4995115;28;20033;-42
2021/12/18 13:39:22;;;;;;;15.43;11.68;;;5.20;99.90;;;;;;4993361;28;20398;-45